createdAt,value
2018-05-19T00:01:24.359Z,6.37
2018-05-19T00:03:51.819Z,6.10
2018-05-19T00:06:19.294Z,5.90
2018-05-19T00:08:46.769Z,6.80
2018-05-19T00:11:14.988Z,5.80
2018-05-19T00:13:42.462Z,6.53
2018-05-19T00:16:09.944Z,6.10
2018-05-19T00:18:38.174Z,7.07
2018-05-19T00:21:05.648Z,5.87
2018-05-19T00:23:33.129Z,6.17
2018-05-19T00:26:00.593Z,5.57
2018-05-19T00:28:28.052Z,6.90
2018-05-19T00:30:56.305Z,7.20
2018-05-19T00:33:23.775Z,6.30
2018-05-19T00:35:51.229Z,7.00
2018-05-19T00:38:18.701Z,7.03
2018-05-19T00:40:46.925Z,7.50
2018-05-19T00:43:14.389Z,7.53
2018-05-19T00:45:41.865Z,7.13
2018-05-19T00:48:09.326Z,8.13
2018-05-19T00:50:36.790Z,7.03
2018-05-19T00:53:04.269Z,7.60
2018-05-19T00:55:31.748Z,8.07
2018-05-19T00:57:59.921Z,7.63
2018-05-19T01:00:27.402Z,8.17
2018-05-19T01:02:54.856Z,8.77
2018-05-19T01:05:22.313Z,8.20
2018-05-19T01:07:49.797Z,7.87
2018-05-19T01:10:17.249Z,8.77
2018-05-19T01:12:44.713Z,8.00
2018-05-19T01:15:12.990Z,8.80
2018-05-19T01:17:40.447Z,8.70
2018-05-19T01:20:08.713Z,7.77
2018-05-19T01:22:36.201Z,8.53
2018-05-19T01:25:04.426Z,8.77
2018-05-19T01:27:31.905Z,9.53
2018-05-19T01:29:59.376Z,9.97
2018-05-19T01:32:27.609Z,8.83
2018-05-19T01:34:55.094Z,9.93
2018-05-19T01:37:22.552Z,10.30
2018-05-19T01:39:50.819Z,11.37
2018-05-19T01:42:18.281Z,10.17
2018-05-19T01:44:45.744Z,9.90
2018-05-19T01:47:13.245Z,9.20
2018-05-19T01:49:40.765Z,9.73
2018-05-19T01:52:09.005Z,10.27
2018-05-19T01:54:36.496Z,9.67
2018-05-19T01:57:04.718Z,9.40
2018-05-19T01:59:32.184Z,11.20
2018-05-19T02:01:59.685Z,11.50
2018-05-19T02:04:27.925Z,11.40
2018-05-19T02:06:55.413Z,12.10
2018-05-19T02:09:22.884Z,12.17
2018-05-19T02:11:51.122Z,13.10
2018-05-19T02:14:18.597Z,13.70
2018-05-19T02:16:46.076Z,12.80
2018-05-19T02:19:13.544Z,11.97
2018-05-19T02:21:41.017Z,12.60
2018-05-19T02:24:08.505Z,13.07
2018-05-19T02:26:35.981Z,14.27
2018-05-19T02:29:03.444Z,13.20
2018-05-19T02:31:31.681Z,12.70
2018-05-19T02:33:59.148Z,11.90
2018-05-19T02:36:26.618Z,12.93
2018-05-19T02:38:54.105Z,13.83
2018-05-19T02:41:21.579Z,12.93
2018-05-19T02:43:49.049Z,13.73
2018-05-19T02:46:16.535Z,12.97
2018-05-19T02:48:43.997Z,14.40
2018-05-19T02:51:12.250Z,13.03
2018-05-19T02:53:39.747Z,15.40
2018-05-19T02:56:07.981Z,14.83
2018-05-19T02:58:35.458Z,14.10
2018-05-19T03:01:02.936Z,13.90
2018-05-19T03:03:31.177Z,15.00
2018-05-19T03:05:58.666Z,15.30
2018-05-19T03:08:26.910Z,15.43
2018-05-19T03:10:54.375Z,15.83
2018-05-19T03:13:21.950Z,15.17
2018-05-19T03:15:50.395Z,15.87
2018-05-19T03:18:17.880Z,14.60
2018-05-19T03:20:45.356Z,16.30
2018-05-19T03:23:13.593Z,15.07
2018-05-19T03:25:41.060Z,14.60
2018-05-19T03:28:08.558Z,16.00
2018-05-19T03:30:36.782Z,14.90
2018-05-19T03:33:04.252Z,16.27
2018-05-19T03:35:31.729Z,16.73
2018-05-19T03:37:59.973Z,15.17
2018-05-19T03:40:27.440Z,16.03
2018-05-19T03:42:54.937Z,14.90
2018-05-19T03:45:22.459Z,15.20
2018-05-19T03:47:49.920Z,15.20
2018-05-19T03:50:18.229Z,15.67
2018-05-19T03:52:45.700Z,14.80
2018-05-19T03:55:13.157Z,16.73
2018-05-19T03:57:52.504Z,15.57
2018-05-19T04:00:31.916Z,16.57
2018-05-19T04:02:59.388Z,16.47
2018-05-19T04:05:26.869Z,15.63
2018-05-19T04:07:54.353Z,15.57
2018-05-19T04:10:22.601Z,15.93
2018-05-19T04:12:51.000Z,15.03
2018-05-19T04:15:18.465Z,15.30
2018-05-19T04:17:46.709Z,15.70
2018-05-19T04:20:14.172Z,15.63
2018-05-19T04:22:41.645Z,14.17
2018-05-19T04:25:09.131Z,15.27
2018-05-19T04:27:36.597Z,14.70
2018-05-19T04:30:04.085Z,15.07
2018-05-19T04:32:31.549Z,14.27
2018-05-19T04:34:59.021Z,15.20
2018-05-19T04:37:26.501Z,15.40
2018-05-19T04:39:54.740Z,16.10
2018-05-19T04:42:22.193Z,14.97
2018-05-19T04:44:49.682Z,17.60
2018-05-19T04:47:17.150Z,15.83
2018-05-19T04:49:45.372Z,15.50
2018-05-19T04:52:12.858Z,14.80
2018-05-19T04:54:40.323Z,13.87
2018-05-19T04:57:07.778Z,13.53
2018-05-19T04:59:35.256Z,15.70
2018-05-19T05:02:02.765Z,14.37
2018-05-19T05:04:30.232Z,15.00
2018-05-19T05:06:57.728Z,15.40
2018-05-19T05:09:25.961Z,14.73
2018-05-19T05:11:53.438Z,13.80
2018-05-19T05:14:20.914Z,13.43
2018-05-19T05:16:49.205Z,13.10
2018-05-19T05:19:16.633Z,12.97
2018-05-19T05:21:44.108Z,13.77
2018-05-19T05:24:11.833Z,12.50
2018-05-19T05:26:40.048Z,13.17
2018-05-19T05:29:07.536Z,11.53
2018-05-19T05:31:35.012Z,11.80
2018-05-19T05:34:02.477Z,10.90
2018-05-19T05:36:29.975Z,10.77
2018-05-19T05:38:57.445Z,10.90
2018-05-19T05:41:24.912Z,11.80
2018-05-19T05:43:52.401Z,10.23
2018-05-19T05:46:21.389Z,11.10
2018-05-19T05:48:48.853Z,10.90
2018-05-19T05:51:16.332Z,10.47
2018-05-19T05:53:44.565Z,11.00
2018-05-19T05:56:12.029Z,11.40
2018-05-19T05:58:39.516Z,10.57
2018-05-19T06:01:06.981Z,10.50
2018-05-19T06:03:35.200Z,9.40
2018-05-19T06:06:02.687Z,9.77
2018-05-19T06:08:30.149Z,9.50
2018-05-19T06:10:57.642Z,9.33
2018-05-19T06:13:25.423Z,9.50
2018-05-19T06:15:52.892Z,9.70
2018-05-19T06:18:20.381Z,10.23
2018-05-19T06:20:47.853Z,10.27
2018-05-19T06:23:16.084Z,10.07
2018-05-19T06:25:43.620Z,10.50
2018-05-19T06:28:11.086Z,10.07
2018-05-19T06:30:38.540Z,9.30
2018-05-19T06:33:06.017Z,9.33
2018-05-19T06:35:33.488Z,10.70
2018-05-19T06:38:00.990Z,10.13
2018-05-19T06:40:28.525Z,11.30
2018-05-19T06:42:55.986Z,9.77
2018-05-19T06:45:24.221Z,8.73
2018-05-19T06:47:51.788Z,7.13
2018-05-19T06:50:19.217Z,6.47
2018-05-19T06:52:46.680Z,6.70
2018-05-19T06:55:14.160Z,6.17
2018-05-19T06:57:41.632Z,5.27
2018-05-19T07:00:09.112Z,6.00
2018-05-19T07:02:37.390Z,5.73
2018-05-19T07:05:05.614Z,6.60
2018-05-19T07:07:35.894Z,7.93
2018-05-19T07:10:03.381Z,7.37
2018-05-19T07:12:30.853Z,9.20
2018-05-19T07:14:58.393Z,7.27
2018-05-19T07:17:26.840Z,8.27
2018-05-19T07:19:54.927Z,8.00
2018-05-19T07:22:22.390Z,7.10
2018-05-19T07:24:50.557Z,8.00
2018-05-19T07:27:18.583Z,7.60
2018-05-19T07:29:46.873Z,9.20
2018-05-19T07:32:15.920Z,7.53
2018-05-19T07:34:46.226Z,7.50
2018-05-19T07:37:13.705Z,7.00
2018-05-19T07:39:41.925Z,7.20
2018-05-19T07:42:09.986Z,6.40
2018-05-19T07:44:39.037Z,7.70
2018-05-19T07:47:06.493Z,6.93
2018-05-19T07:49:33.958Z,6.77
2018-05-19T07:52:01.542Z,6.97
2018-05-19T07:54:29.013Z,5.83
2018-05-19T07:56:57.252Z,5.83
2018-05-19T07:59:24.735Z,7.30
2018-05-19T08:01:52.965Z,6.27
2018-05-19T08:04:20.525Z,5.53
2018-05-19T08:06:47.932Z,6.40
2018-05-19T08:09:16.169Z,5.77
2018-05-19T08:11:43.647Z,5.60
2018-05-19T08:14:11.104Z,6.10
2018-05-19T08:16:38.568Z,4.60
2018-05-19T08:19:06.817Z,5.90
2018-05-19T08:21:34.277Z,4.60
2018-05-19T08:24:01.755Z,4.67
2018-05-19T08:26:29.236Z,5.47
2018-05-19T08:28:56.702Z,5.43
2018-05-19T08:31:24.172Z,5.80
2018-05-19T08:33:51.668Z,6.10
2018-05-19T08:36:19.898Z,5.20
2018-05-19T08:38:47.361Z,5.90
2018-05-19T08:41:14.915Z,5.73
2018-05-19T08:43:42.386Z,6.40
2018-05-19T08:46:09.845Z,7.10
2018-05-19T08:48:37.351Z,7.53
2018-05-19T08:51:05.590Z,6.90
2018-05-19T08:53:33.053Z,7.13
2018-05-19T08:56:00.646Z,6.43
2018-05-19T08:58:28.869Z,5.87
2018-05-19T09:00:56.337Z,6.60
2018-05-19T09:03:23.815Z,6.23
2018-05-19T09:05:51.385Z,6.47
2018-05-19T09:08:19.625Z,6.60
2018-05-19T09:10:47.116Z,6.00
2018-05-19T09:13:15.338Z,6.03
2018-05-19T09:15:42.801Z,6.10
2018-05-19T09:18:10.273Z,6.53
2018-05-19T09:20:37.744Z,6.33
2018-05-19T09:23:05.331Z,7.27
2018-05-19T09:25:32.790Z,5.90
2018-05-19T09:28:01.041Z,5.20
2018-05-19T09:30:28.510Z,6.20
2018-05-19T09:32:56.757Z,5.53
2018-05-19T09:35:24.275Z,5.30
2018-05-19T09:37:51.749Z,5.33
2018-05-19T09:40:19.225Z,5.27
2018-05-19T09:42:46.689Z,5.63
2018-05-19T09:45:14.174Z,6.30
2018-05-19T09:47:42.492Z,5.80
2018-05-19T09:50:09.897Z,6.27
2018-05-19T09:52:38.141Z,5.80
2018-05-19T09:55:05.619Z,5.40
2018-05-19T09:57:33.837Z,5.90
2018-05-19T10:00:01.334Z,5.50
2018-05-19T10:02:28.804Z,5.43
2018-05-19T10:04:56.370Z,6.33
2018-05-19T10:07:23.760Z,5.77
2018-05-19T10:09:51.226Z,5.63
2018-05-19T10:12:18.696Z,6.00
2018-05-19T10:14:46.166Z,5.27
2018-05-19T10:17:13.662Z,5.20
2018-05-19T10:19:41.104Z,5.53
2018-05-19T10:22:09.352Z,4.87
2018-05-19T10:24:36.819Z,5.20
2018-05-19T10:27:04.337Z,5.97
2018-05-19T10:29:31.797Z,4.80
2018-05-19T10:31:59.260Z,5.97
2018-05-19T10:34:26.750Z,5.67
2018-05-19T10:36:55.042Z,5.80
2018-05-19T10:39:23.281Z,5.37
2018-05-19T10:41:50.827Z,5.30
2018-05-19T10:44:18.237Z,5.90
2018-05-19T10:46:46.487Z,6.40
2018-05-19T10:49:13.956Z,5.70
2018-05-19T10:51:41.411Z,5.50
2018-05-19T10:54:10.409Z,6.60
2018-05-19T10:56:37.861Z,5.43
2018-05-19T10:59:05.321Z,5.20
2018-05-19T11:01:33.584Z,6.83
2018-05-19T11:04:01.053Z,7.33
2018-05-19T11:06:29.285Z,7.20
2018-05-19T11:08:56.793Z,6.30
2018-05-19T11:11:25.032Z,7.60
2018-05-19T11:13:52.498Z,7.03
2018-05-19T11:16:19.982Z,7.13
2018-05-19T11:18:48.254Z,6.73
2018-05-19T11:21:15.730Z,7.13
2018-05-19T11:23:43.221Z,6.83
2018-05-19T11:26:10.697Z,7.87
2018-05-19T11:28:38.173Z,7.47
2018-05-19T11:31:06.428Z,7.30
2018-05-19T11:33:33.888Z,8.43
2018-05-19T11:36:01.377Z,7.83
2018-05-19T11:38:29.635Z,7.07
2018-05-19T11:40:57.869Z,8.80
2018-05-19T11:43:25.329Z,7.40
2018-05-19T11:45:52.812Z,8.67
2018-05-19T11:48:20.284Z,7.80
2018-05-19T11:50:48.538Z,8.37
2018-05-19T11:53:16.009Z,9.80
2018-05-19T11:55:43.491Z,11.67
2018-05-19T11:58:10.958Z,11.77
2018-05-19T12:00:38.421Z,11.43
2018-05-19T12:03:05.941Z,12.10
2018-05-19T12:05:34.914Z,13.17
2018-05-19T12:08:02.381Z,15.83
2018-05-19T12:10:29.870Z,12.60
2018-05-19T12:12:57.354Z,13.03
2018-05-19T12:15:24.819Z,11.77
2018-05-19T12:17:52.314Z,8.10
2018-05-19T12:20:19.772Z,7.43
2018-05-19T12:22:48.109Z,8.47
2018-05-19T12:25:15.500Z,9.07
2018-05-19T12:27:42.968Z,7.93
2018-05-19T12:30:11.190Z,9.50
2018-05-19T12:32:38.677Z,8.80
2018-05-19T12:35:06.141Z,9.10
2018-05-19T12:37:33.612Z,10.80
2018-05-19T12:40:01.853Z,9.57
2018-05-19T12:42:29.329Z,10.50
2018-05-19T12:44:56.795Z,11.60
2018-05-19T12:47:25.062Z,11.60
2018-05-19T12:49:52.533Z,11.37
2018-05-19T12:52:20.781Z,12.17
2018-05-19T12:54:48.245Z,10.50
2018-05-19T12:57:15.717Z,10.93
2018-05-19T12:59:43.965Z,12.37
2018-05-19T13:02:11.438Z,13.47
2018-05-19T13:04:38.902Z,11.07
2018-05-19T13:07:07.156Z,11.40
2018-05-19T13:09:34.630Z,13.97
2018-05-19T13:12:05.107Z,11.93
2018-05-19T13:14:32.588Z,12.13
2018-05-19T13:17:00.061Z,12.10
2018-05-19T13:19:28.291Z,10.07
2018-05-19T13:21:56.605Z,10.60
2018-05-19T13:24:26.730Z,10.80
2018-05-19T13:26:55.004Z,11.40
2018-05-19T13:29:23.077Z,10.70
2018-05-19T13:31:50.543Z,10.53
2018-05-19T13:34:22.942Z,12.80
2018-05-19T13:36:50.410Z,12.27
2018-05-19T13:39:19.037Z,14.07
2018-05-19T13:41:46.804Z,12.20
2018-05-19T13:44:15.435Z,12.47
2018-05-19T13:46:44.182Z,12.93
2018-05-19T13:49:14.257Z,13.23
2018-05-19T13:51:44.505Z,13.27
2018-05-19T13:54:12.767Z,14.60
2018-05-19T13:56:43.139Z,14.00
2018-05-19T13:59:11.497Z,13.30
2018-05-19T14:01:40.393Z,12.97
2018-05-19T14:04:08.621Z,14.30
2018-05-19T14:06:38.310Z,12.20
2018-05-19T14:09:05.813Z,12.30
2018-05-19T14:11:33.408Z,12.50
2018-05-19T14:14:01.632Z,13.40
2018-05-19T14:16:29.130Z,12.20
2018-05-19T14:18:57.368Z,13.33
2018-05-19T14:21:24.825Z,12.47
2018-05-19T14:23:52.308Z,13.30
2018-05-19T14:26:19.772Z,13.17
2018-05-19T14:28:48.017Z,13.87
2018-05-19T14:31:15.513Z,14.67
2018-05-19T14:33:43.740Z,13.20
2018-05-19T14:36:11.220Z,12.87
2018-05-19T14:38:38.730Z,14.67
2018-05-19T14:41:06.185Z,13.23
2018-05-19T14:43:33.653Z,12.87
2018-05-19T14:46:01.141Z,12.57
2018-05-19T14:48:28.617Z,14.87
2018-05-19T14:50:56.873Z,13.30
2018-05-19T14:53:24.350Z,13.70
2018-05-19T14:55:51.894Z,13.67
2018-05-19T14:58:19.376Z,14.23
2018-05-19T15:00:47.620Z,14.50
2018-05-19T15:03:15.136Z,13.47
2018-05-19T15:05:42.615Z,14.50
2018-05-19T15:08:10.077Z,13.10
2018-05-19T15:10:37.559Z,14.60
2018-05-19T15:13:05.048Z,14.50
2018-05-19T15:15:32.525Z,13.90
2018-05-19T15:18:00.009Z,13.20
2018-05-19T15:20:27.497Z,14.53
2018-05-19T15:22:55.729Z,14.23
2018-05-19T15:25:23.185Z,15.77
2018-05-19T15:27:50.677Z,15.27
2018-05-19T15:30:18.129Z,15.63
2018-05-19T15:32:45.635Z,14.63
2018-05-19T15:35:13.106Z,15.27
2018-05-19T15:37:40.564Z,13.70
2018-05-19T15:40:08.070Z,14.33
2018-05-19T15:42:35.540Z,14.67
2018-05-19T15:45:03.017Z,14.17
2018-05-19T15:47:32.449Z,14.33
2018-05-19T15:50:00.892Z,15.33
2018-05-19T15:52:29.581Z,14.70
2018-05-19T15:54:58.809Z,14.70
2018-05-19T15:57:27.086Z,13.77
2018-05-19T15:59:56.368Z,13.67
2018-05-19T16:02:23.861Z,14.20
2018-05-19T16:04:52.161Z,13.90
2018-05-19T16:07:20.396Z,13.57
2018-05-19T16:09:47.890Z,14.47
2018-05-19T16:12:16.137Z,14.40
2018-05-19T16:14:43.608Z,12.77
2018-05-19T16:17:11.093Z,12.53
2018-05-19T16:19:39.322Z,12.83
2018-05-19T16:22:06.785Z,13.17
2018-05-19T16:24:35.041Z,11.93
2018-05-19T16:27:02.502Z,12.17
2018-05-19T16:29:29.983Z,11.20
2018-05-19T16:31:57.470Z,10.93
2018-05-19T16:34:24.936Z,11.57
2018-05-19T16:36:52.425Z,10.80
2018-05-19T16:39:19.932Z,11.80
2018-05-19T16:41:48.161Z,12.17
2018-05-19T16:44:15.627Z,13.20
2018-05-19T16:46:43.124Z,13.60
2018-05-19T16:49:11.358Z,14.53
2018-05-19T16:51:38.851Z,14.27
2018-05-19T16:54:07.092Z,13.83
2018-05-19T16:56:34.608Z,12.30
2018-05-19T16:59:02.117Z,12.73
2018-05-19T17:01:29.590Z,12.87
2018-05-19T17:03:57.897Z,14.47
2018-05-19T17:06:25.409Z,13.10
2018-05-19T17:08:53.649Z,13.20
2018-05-19T17:11:21.140Z,12.10
2018-05-19T17:13:48.624Z,11.40
2018-05-19T17:16:16.861Z,11.93
2018-05-19T17:18:45.141Z,10.80
2018-05-19T17:21:13.373Z,12.30
2018-05-19T17:23:40.873Z,12.77
2018-05-19T17:26:08.345Z,11.20
2018-05-19T17:28:36.625Z,12.20
2018-05-19T17:31:04.877Z,11.30
2018-05-19T17:33:32.344Z,11.53
2018-05-19T17:36:00.597Z,10.53
2018-05-19T17:38:28.081Z,10.60
2018-05-19T17:40:55.538Z,10.90
2018-05-19T17:43:23.776Z,10.20
2018-05-19T17:45:51.342Z,10.47
2018-05-19T17:48:18.749Z,10.53
2018-05-19T17:50:46.238Z,10.87
2018-05-19T17:53:13.697Z,10.80
2018-05-19T17:55:41.180Z,9.90
2018-05-19T17:58:08.647Z,10.97
2018-05-19T18:00:36.153Z,11.00
2018-05-19T18:03:03.673Z,10.60
2018-05-19T18:05:31.904Z,11.40
2018-05-19T18:07:59.377Z,11.03
2018-05-19T18:10:26.870Z,10.70
2018-05-19T18:12:55.110Z,11.13
2018-05-19T18:15:22.585Z,11.40
2018-05-19T18:17:50.084Z,10.23
2018-05-19T18:20:17.545Z,10.57
2018-05-19T18:22:45.029Z,9.83
2018-05-19T18:25:12.520Z,11.10
2018-05-19T18:27:40.773Z,10.47
2018-05-19T18:30:08.238Z,9.63
2018-05-19T18:32:35.730Z,10.63
2018-05-19T18:35:03.211Z,10.60
2018-05-19T18:37:30.703Z,10.73
2018-05-19T18:39:58.197Z,10.77
2018-05-19T18:42:25.689Z,9.77
2018-05-19T18:44:53.169Z,9.00
2018-05-19T18:47:20.658Z,10.30
2018-05-19T18:49:48.894Z,9.80
2018-05-19T18:52:16.341Z,9.47
2018-05-19T18:54:55.752Z,10.00
2018-05-19T18:57:23.233Z,9.20
2018-05-19T18:59:50.695Z,9.63
2018-05-19T19:02:18.177Z,10.80
2018-05-19T19:04:45.645Z,11.37
2018-05-19T19:07:13.876Z,10.67
2018-05-19T19:09:41.377Z,9.77
2018-05-19T19:12:08.844Z,10.20
2018-05-19T19:14:37.071Z,10.00
2018-05-19T19:17:04.556Z,8.77
2018-05-19T19:19:32.017Z,9.30
2018-05-19T19:22:00.252Z,8.13
2018-05-19T19:24:27.761Z,9.03
2018-05-19T19:26:55.349Z,8.20
2018-05-19T19:29:22.816Z,7.80
2018-05-19T19:31:50.289Z,8.60
2018-05-19T19:34:17.762Z,9.13
2018-05-19T19:36:45.248Z,8.57
2018-05-19T19:39:13.481Z,8.00
2018-05-19T19:41:40.953Z,8.40
2018-05-19T19:44:09.193Z,8.20
2018-05-19T19:46:36.662Z,8.90
2018-05-19T19:49:04.124Z,8.40
2018-05-19T19:51:31.623Z,8.40
2018-05-19T19:53:59.849Z,7.50
2018-05-19T19:56:27.344Z,8.57
2018-05-19T19:58:54.857Z,8.70
2018-05-19T20:01:22.332Z,8.00
2018-05-19T20:03:49.811Z,8.90
2018-05-19T20:06:17.357Z,8.40
2018-05-19T20:08:44.827Z,8.33
2018-05-19T20:11:13.084Z,8.53
2018-05-19T20:13:40.558Z,8.50
2018-05-19T20:16:08.026Z,8.20
2018-05-19T20:18:36.335Z,7.80
2018-05-19T20:21:03.809Z,8.40
2018-05-19T20:23:31.278Z,7.97
2018-05-19T20:25:58.777Z,8.73
2018-05-19T20:28:27.029Z,8.23
2018-05-19T20:30:54.513Z,8.70
2018-05-19T20:33:22.740Z,7.80
2018-05-19T20:35:50.218Z,7.90
2018-05-19T20:38:17.702Z,8.43
2018-05-19T20:40:45.925Z,8.17
2018-05-19T20:43:13.408Z,8.53
2018-05-19T20:45:41.642Z,8.90
2018-05-19T20:48:09.141Z,8.23
2018-05-19T20:50:36.692Z,9.27
2018-05-19T20:53:04.167Z,8.80
2018-05-19T20:55:32.396Z,9.87
2018-05-19T20:57:59.897Z,10.13
2018-05-19T21:00:28.161Z,8.57
2018-05-19T21:02:55.662Z,9.30
2018-05-19T21:05:23.137Z,8.43
2018-05-19T21:07:50.610Z,9.60
2018-05-19T21:10:18.119Z,9.70
2018-05-19T21:12:45.565Z,10.20
2018-05-19T21:15:13.809Z,9.17
2018-05-19T21:17:41.269Z,9.67
2018-05-19T21:20:08.750Z,10.00
2018-05-19T21:22:37.018Z,9.80
2018-05-19T21:25:05.261Z,11.00
2018-05-19T21:27:32.796Z,10.80
2018-05-19T21:30:00.981Z,10.97
2018-05-19T21:32:28.481Z,10.57
2018-05-19T21:34:56.724Z,10.90
2018-05-19T21:37:24.192Z,10.70
2018-05-19T21:39:51.690Z,10.47
2018-05-19T21:42:19.150Z,11.27
2018-05-19T21:44:46.622Z,10.40
2018-05-19T21:47:14.105Z,11.37
2018-05-19T21:49:41.577Z,12.30
2018-05-19T21:52:09.042Z,10.43
2018-05-19T21:54:36.524Z,11.67
2018-05-19T21:57:03.996Z,10.77
2018-05-19T21:59:31.489Z,11.67
2018-05-19T22:01:58.984Z,12.07
2018-05-19T22:04:27.256Z,12.00
2018-05-19T22:06:55.508Z,12.00
2018-05-19T22:09:22.989Z,12.00
2018-05-19T22:11:51.247Z,10.70
2018-05-19T22:14:18.716Z,12.30
2018-05-19T22:16:46.973Z,11.83
2018-05-19T22:19:14.456Z,12.70
2018-05-19T22:21:42.697Z,12.23
2018-05-19T22:24:10.166Z,12.10
2018-05-19T22:26:37.627Z,12.77
2018-05-19T22:29:05.137Z,12.10
2018-05-19T22:31:32.625Z,14.17
2018-05-19T22:34:00.093Z,13.23
2018-05-19T22:36:27.585Z,12.47
2018-05-19T22:38:55.069Z,13.57
2018-05-19T22:41:22.551Z,13.70
2018-05-19T22:43:50.023Z,12.90
2018-05-19T22:46:18.298Z,13.50
2018-05-19T22:48:45.788Z,13.23
2018-05-19T22:51:13.260Z,12.63
2018-05-19T22:53:40.775Z,13.10
2018-05-19T22:56:08.361Z,14.53
2018-05-19T22:58:35.827Z,13.70
2018-05-19T23:01:03.313Z,13.17
2018-05-19T23:03:30.794Z,13.50
2018-05-19T23:05:59.082Z,13.80
2018-05-19T23:08:27.334Z,14.33
2018-05-19T23:10:54.824Z,13.23
2018-05-19T23:13:23.057Z,14.43
2018-05-19T23:15:50.529Z,15.23
2018-05-19T23:18:19.518Z,13.70
2018-05-19T23:20:46.979Z,13.97
2018-05-19T23:23:15.218Z,15.07
2018-05-19T23:25:42.695Z,15.67
2018-05-19T23:28:10.164Z,15.07
2018-05-19T23:30:37.633Z,13.90
2018-05-19T23:33:05.110Z,14.80
2018-05-19T23:35:33.345Z,16.30
2018-05-19T23:38:00.819Z,15.80
2018-05-19T23:40:28.291Z,15.37
2018-05-19T23:42:56.524Z,14.27
2018-05-19T23:45:24.021Z,14.83
2018-05-19T23:47:52.249Z,15.27
2018-05-19T23:50:19.720Z,16.53
2018-05-19T23:52:47.197Z,16.93
2018-05-19T23:55:14.738Z,17.50
2018-05-19T23:57:42.204Z,15.67
